Time;durP1;ratioP1;P1;durP2;ratioP2;P2;SDS_P1;SDS_P2;PMS_P1;PMS_P2;Temp;Humidity;BMP_temperature;BMP_pressure;BME280_temperature;BME280_humidity;BME280_pressure;Samples;Min_cycle;Max_cycle;Signal;HPM_P1;HPM_P2
2023/04/28 00:00:28;;;;;;;38.40;19.90;;;;;;;;;;107573;1253;22510;-78
2023/04/28 00:03:15;;;;;;;37.40;19.90;;;;;;;;;;107523;1249;24303;-77
2023/04/28 00:05:41;;;;;;;35.70;23.00;;;;;;;;;;107493;1250;23299;-77
2023/04/28 00:08:07;;;;;;;38.30;20.20;;;;;;;;;;107505;1249;23780;-77
2023/04/28 00:10:34;;;;;;;37.80;19.60;;;;;;;;;;107544;1249;22606;-77
2023/04/28 00:13:00;;;;;;;32.80;19.90;;;;;;;;;;107528;1249;26470;-77
2023/04/28 00:15:26;;;;;;;31.50;19.20;;;;;;;;;;109151;1253;25221;-77
2023/04/28 00:17:53;;;;;;;37.30;18.50;;;;;;;;;;107541;1249;24196;-78
2023/04/28 00:20:19;;;;;;;36.20;18.60;;;;;;;;;;107530;1253;22550;-78
2023/04/28 00:22:45;;;;;;;37.50;18.50;;;;;;;;;;109849;1249;22788;-77
2023/04/28 00:25:12;;;;;;;39.10;20.00;;;;;;;;;;107938;1249;25292;-79
2023/04/28 00:27:38;;;;;;;43.70;21.40;;;;;;;;;;107550;1249;22517;-77
2023/04/28 00:30:05;;;;;;;37.90;21.60;;;;;;;;;;107742;1249;24245;-77
2023/04/28 00:32:31;;;;;;;33.30;20.30;;;;;;;;;;107627;1248;27433;-77
2023/04/28 00:34:58;;;;;;;37.20;19.80;;;;;;;;;;107676;1249;25211;-79
2023/04/28 00:37:24;;;;;;;35.60;19.60;;;;;;;;;;107656;1249;22556;-78
2023/04/28 00:39:54;;;;;;;31.50;20.10;;;;;;;;;;107605;1252;25384;-80
2023/04/28 00:42:21;;;;;;;40.00;22.90;;;;;;;;;;107694;1250;22518;-79
2023/04/28 00:44:47;;;;;;;43.00;20.80;;;;;;;;;;107629;1250;23260;-78
2023/04/28 00:47:13;;;;;;;32.30;21.00;;;;;;;;;;107664;1252;24201;-78
2023/04/28 00:49:40;;;;;;;39.40;19.90;;;;;;;;;;107577;1249;23138;-79
2023/04/28 00:52:06;;;;;;;39.40;22.30;;;;;;;;;;107710;1249;22573;-81
2023/04/28 00:54:33;;;;;;;39.30;20.40;;;;;;;;;;107645;1249;26454;-77
2023/04/28 00:57:03;;;;;;;37.20;20.60;;;;;;;;;;107630;1249;22527;-78
2023/04/28 00:59:30;;;;;;;36.00;21.10;;;;;;;;;;107669;1250;25363;-77
2023/04/28 01:01:56;;;;;;;34.40;19.40;;;;;;;;;;107712;1247;25179;-77
2023/04/28 01:04:22;;;;;;;39.30;23.50;;;;;;;;;;107787;1247;24196;-78
2023/04/28 01:06:49;;;;;;;37.20;20.00;;;;;;;;;;107787;1253;25346;-78
2023/04/28 01:09:16;;;;;;;34.90;21.20;;;;;;;;;;107812;1248;22526;-78
2023/04/28 01:11:42;;;;;;;36.40;18.90;;;;;;;;;;107802;1247;23809;-78
2023/04/28 01:14:09;;;;;;;31.50;17.40;;;;;;;;;;107783;1253;22524;-77
2023/04/28 01:16:36;;;;;;;33.70;17.60;;;;;;;;;;107778;1250;22521;-77
2023/04/28 01:19:03;;;;;;;34.50;17.80;;;;;;;;;;107562;1247;24079;-76
2023/04/28 01:21:32;;;;;;;36.20;21.00;;;;;;;;;;107770;1250;22515;-78
2023/04/28 01:23:59;;;;;;;35.40;19.40;;;;;;;;;;107784;1247;25380;-78
2023/04/28 01:26:25;;;;;;;36.20;20.40;;;;;;;;;;107826;1247;24335;-77
2023/04/28 01:28:51;;;;;;;37.00;20.40;;;;;;;;;;107761;1252;25326;-77
2023/04/28 01:31:18;;;;;;;34.10;19.80;;;;;;;;;;107624;1250;23096;-77
2023/04/28 01:33:44;;;;;;;39.70;20.40;;;;;;;;;;107639;1249;25256;-76
2023/04/28 01:36:11;;;;;;;42.70;20.60;;;;;;;;;;107643;1248;25239;-78
2023/04/28 01:38:37;;;;;;;35.50;19.60;;;;;;;;;;107704;1250;24226;-78
2023/04/28 01:41:03;;;;;;;36.80;19.40;;;;;;;;;;107681;1248;23149;-77
2023/04/28 01:43:30;;;;;;;39.10;21.30;;;;;;;;;;107606;1252;25210;-77
2023/04/28 01:45:56;;;;;;;44.70;20.70;;;;;;;;;;107620;1250;22549;-77
2023/04/28 01:48:22;;;;;;;29.90;18.50;;;;;;;;;;107668;1250;24237;-77
2023/04/28 01:50:48;;;;;;;30.20;20.40;;;;;;;;;;107692;1250;25507;-77
2023/04/28 01:53:19;;;;;;;33.30;18.40;;;;;;;;;;107599;1249;25210;-77
2023/04/28 01:55:46;;;;;;;31.40;18.20;;;;;;;;;;107619;1250;22521;-78
2023/04/28 01:58:12;;;;;;;31.10;17.80;;;;;;;;;;107394;1250;154736;-78
2023/04/28 02:00:39;;;;;;;32.70;17.40;;;;;;;;;;107531;1254;22624;-78
2023/04/28 02:03:05;;;;;;;39.70;19.40;;;;;;;;;;107657;1248;25323;-77
2023/04/28 02:05:31;;;;;;;36.40;18.40;;;;;;;;;;107626;1250;22520;-78
2023/04/28 02:07:59;;;;;;;35.90;19.40;;;;;;;;;;110093;1249;22420;-78
2023/04/28 02:10:26;;;;;;;36.00;19.60;;;;;;;;;;110972;1248;22309;-78
2023/04/28 02:12:52;;;;;;;38.10;21.30;;;;;;;;;;110954;1248;22271;-78
2023/04/28 02:15:18;;;;;;;39.60;22.80;;;;;;;;;;109427;1250;22602;-77
2023/04/28 02:17:45;;;;;;;32.60;19.70;;;;;;;;;;109767;1248;22343;-78
2023/04/28 02:20:13;;;;;;;40.80;22.70;;;;;;;;;;110974;1248;22459;-78
2023/04/28 02:22:40;;;;;;;41.00;22.00;;;;;;;;;;110973;1248;22665;-78
2023/04/28 02:25:07;;;;;;;40.60;21.20;;;;;;;;;;110901;1249;22461;-78
2023/04/28 02:27:37;;;;;;;37.20;19.80;;;;;;;;;;110974;1248;22375;-77
2023/04/28 02:30:06;;;;;;;32.30;18.40;;;;;;;;;;110969;1248;22685;-77
2023/04/28 02:32:32;;;;;;;35.20;19.50;;;;;;;;;;110986;1248;22378;-78
2023/04/28 02:34:59;;;;;;;32.40;19.90;;;;;;;;;;109162;1250;22541;-78
2023/04/28 02:37:25;;;;;;;33.70;18.90;;;;;;;;;;109315;1249;22573;-78
2023/04/28 02:39:52;;;;;;;33.00;19.90;;;;;;;;;;111037;1248;22847;-78
2023/04/28 02:42:18;;;;;;;32.10;19.60;;;;;;;;;;110959;1249;22511;-78
2023/04/28 02:44:44;;;;;;;33.20;19.90;;;;;;;;;;110705;1248;22579;-76
2023/04/28 02:47:11;;;;;;;39.50;22.10;;;;;;;;;;107626;1250;22530;-77
2023/04/28 02:49:37;;;;;;;40.90;23.10;;;;;;;;;;107643;1250;25363;-78
2023/04/28 02:52:03;;;;;;;39.80;22.00;;;;;;;;;;107662;1252;22532;-78
2023/04/28 02:54:31;;;;;;;36.60;23.60;;;;;;;;;;107610;1250;25065;-77
2023/04/28 02:56:58;;;;;;;36.40;18.90;;;;;;;;;;107648;1250;25437;-76
2023/04/28 02:59:24;;;;;;;38.40;21.20;;;;;;;;;;107626;1250;22517;-77
2023/04/28 03:01:51;;;;;;;36.00;19.90;;;;;;;;;;107643;1252;22515;-78
2023/04/28 03:04:17;;;;;;;34.70;18.80;;;;;;;;;;107768;1247;25347;-78
2023/04/28 03:06:44;;;;;;;39.70;20.50;;;;;;;;;;107596;1247;22625;-78
2023/04/28 03:09:11;;;;;;;35.80;20.30;;;;;;;;;;107747;1247;22619;-79
2023/04/28 03:11:37;;;;;;;34.10;19.10;;;;;;;;;;107853;1247;22524;-76
2023/04/28 03:14:04;;;;;;;32.20;18.70;;;;;;;;;;107775;1248;23023;-78
2023/04/28 03:16:30;;;;;;;38.40;20.00;;;;;;;;;;109145;1247;23013;-79
2023/04/28 03:18:56;;;;;;;39.40;20.80;;;;;;;;;;111050;1247;22293;-78
2023/04/28 03:21:25;;;;;;;36.50;20.00;;;;;;;;;;111052;1247;22581;-77
2023/04/28 03:23:51;;;;;;;35.00;21.00;;;;;;;;;;107855;1247;22532;-78
2023/04/28 03:26:17;;;;;;;43.10;22.80;;;;;;;;;;107869;1253;22532;-79
2023/04/28 03:28:44;;;;;;;37.30;19.80;;;;;;;;;;111025;1248;22892;-79
2023/04/28 03:31:10;;;;;;;38.10;19.90;;;;;;;;;;109406;1250;23506;-77
2023/04/28 03:33:36;;;;;;;40.10;20.20;;;;;;;;;;107647;1248;24222;-77
2023/04/28 03:36:03;;;;;;;35.60;19.80;;;;;;;;;;107592;1252;25390;-77
2023/04/28 03:38:29;;;;;;;34.20;20.40;;;;;;;;;;107869;1248;22562;-77
2023/04/28 03:40:55;;;;;;;44.10;24.30;;;;;;;;;;107584;1252;22515;-78
2023/04/28 03:43:22;;;;;;;45.50;26.30;;;;;;;;;;107591;1249;24271;-77
2023/04/28 03:45:48;;;;;;;45.10;26.90;;;;;;;;;;107577;1248;22709;-78
2023/04/28 03:48:15;;;;;;;43.70;23.70;;;;;;;;;;107778;1250;25276;-78
2023/04/28 03:50:42;;;;;;;36.80;22.80;;;;;;;;;;107566;1250;24187;-77
2023/04/28 03:53:08;;;;;;;35.20;18.80;;;;;;;;;;107793;1250;22544;-77
2023/04/28 03:55:35;;;;;;;39.00;20.40;;;;;;;;;;107597;1252;23186;-77
2023/04/28 03:58:01;;;;;;;37.10;19.40;;;;;;;;;;107477;1249;22672;-77
2023/04/28 04:00:27;;;;;;;39.10;22.10;;;;;;;;;;107486;1250;25554;-78
2023/04/28 04:02:54;;;;;;;40.30;20.50;;;;;;;;;;107615;1252;22583;-77
2023/04/28 04:05:20;;;;;;;31.80;19.80;;;;;;;;;;107571;1250;22540;-78
2023/04/28 04:07:46;;;;;;;43.10;23.90;;;;;;;;;;107690;1249;25370;-77
2023/04/28 04:10:13;;;;;;;36.30;20.50;;;;;;;;;;107593;1248;22534;-78
2023/04/28 04:12:39;;;;;;;49.70;21.80;;;;;;;;;;107785;1249;22521;-77
2023/04/28 04:15:06;;;;;;;34.00;20.00;;;;;;;;;;107568;1250;24033;-77
2023/04/28 04:17:32;;;;;;;33.80;19.30;;;;;;;;;;107628;1250;22514;-76
2023/04/28 04:19:59;;;;;;;38.30;18.20;;;;;;;;;;107582;1249;24187;-77
2023/04/28 04:22:25;;;;;;;37.00;20.80;;;;;;;;;;107612;1252;22526;-78
2023/04/28 04:24:51;;;;;;;35.60;19.90;;;;;;;;;;107586;1251;24196;-78
2023/04/28 04:27:18;;;;;;;35.60;18.30;;;;;;;;;;107552;1250;22522;-77
2023/04/28 04:29:44;;;;;;;34.90;18.80;;;;;;;;;;107520;1248;23496;-78
2023/04/28 04:32:11;;;;;;;41.30;21.00;;;;;;;;;;107591;1252;22541;-76
2023/04/28 04:34:38;;;;;;;39.40;21.50;;;;;;;;;;107559;1252;25396;-77
2023/04/28 04:37:04;;;;;;;35.40;20.30;;;;;;;;;;107612;1249;25336;-77
2023/04/28 04:39:31;;;;;;;50.30;21.60;;;;;;;;;;107562;1250;24075;-77
2023/04/28 04:41:57;;;;;;;42.00;21.80;;;;;;;;;;107608;1250;22544;-77
2023/04/28 04:44:24;;;;;;;36.10;21.20;;;;;;;;;;107606;1250;22538;-77
2023/04/28 04:46:51;;;;;;;33.20;20.00;;;;;;;;;;107664;1250;23793;-78
2023/04/28 04:49:17;;;;;;;38.30;22.90;;;;;;;;;;107593;1250;25444;-77
2023/04/28 04:51:43;;;;;;;41.20;22.20;;;;;;;;;;107634;1249;25202;-76
2023/04/28 04:54:10;;;;;;;45.90;23.10;;;;;;;;;;107574;1248;24101;-78
2023/04/28 04:56:36;;;;;;;33.90;20.60;;;;;;;;;;107556;1250;22520;-78
2023/04/28 04:59:03;;;;;;;49.40;21.80;;;;;;;;;;107612;1248;22540;-77
2023/04/28 05:01:29;;;;;;;50.20;26.90;;;;;;;;;;107638;1252;22547;-78
2023/04/28 05:03:55;;;;;;;46.10;26.60;;;;;;;;;;107760;1248;22915;-77
2023/04/28 05:06:22;;;;;;;38.00;22.40;;;;;;;;;;107750;1250;22571;-77
2023/04/28 05:08:48;;;;;;;45.40;23.10;;;;;;;;;;108003;1249;22534;-78
2023/04/28 05:11:15;;;;;;;40.90;22.30;;;;;;;;;;107519;1252;25275;-78
2023/04/28 05:13:41;;;;;;;39.50;22.10;;;;;;;;;;107632;1250;25340;-78
2023/04/28 05:16:08;;;;;;;39.40;21.80;;;;;;;;;;107567;1249;25207;-79
2023/04/28 05:18:34;;;;;;;37.80;21.60;;;;;;;;;;107571;1250;24237;-77
2023/04/28 05:21:01;;;;;;;36.20;20.00;;;;;;;;;;107550;1250;23117;-78
2023/04/28 05:23:27;;;;;;;39.80;20.30;;;;;;;;;;107599;1250;24253;-77
2023/04/28 05:25:53;;;;;;;32.50;19.20;;;;;;;;;;107573;1250;25274;-78
2023/04/28 05:28:20;;;;;;;35.50;19.80;;;;;;;;;;107802;1252;22522;-77
2023/04/28 05:30:47;;;;;;;39.30;19.90;;;;;;;;;;107628;1250;25394;-78
2023/04/28 05:33:13;;;;;;;36.60;19.40;;;;;;;;;;107575;1253;25323;-77
2023/04/28 05:35:39;;;;;;;35.70;21.70;;;;;;;;;;107522;1249;23931;-77
2023/04/28 05:38:06;;;;;;;36.10;20.80;;;;;;;;;;107563;1248;22553;-77
2023/04/28 05:40:32;;;;;;;34.00;17.80;;;;;;;;;;107701;1248;22518;-77
2023/04/28 05:42:58;;;;;;;38.10;18.60;;;;;;;;;;107614;1252;22524;-78
2023/04/28 05:45:25;;;;;;;31.50;17.40;;;;;;;;;;107536;1249;22998;-77
2023/04/28 05:47:51;;;;;;;27.80;17.60;;;;;;;;;;107640;1250;25207;-79
2023/04/28 05:50:18;;;;;;;29.20;15.90;;;;;;;;;;107802;1249;22540;-78
2023/04/28 05:52:44;;;;;;;31.70;15.90;;;;;;;;;;107731;1249;22536;-77
2023/04/28 05:55:11;;;;;;;33.30;17.20;;;;;;;;;;107714;1249;22607;-77
2023/04/28 05:57:37;;;;;;;31.10;16.60;;;;;;;;;;108194;1248;22565;-77
2023/04/28 06:00:03;;;;;;;33.50;18.00;;;;;;;;;;108080;1248;22524;-79
2023/04/28 06:02:30;;;;;;;27.30;16.60;;;;;;;;;;107911;1250;22607;-77
2023/04/28 06:04:56;;;;;;;29.70;15.60;;;;;;;;;;108015;1247;23853;-79
2023/04/28 06:07:22;;;;;;;25.60;16.60;;;;;;;;;;107814;1250;22528;-78
2023/04/28 06:09:49;;;;;;;31.80;16.60;;;;;;;;;;108366;1250;24226;-78
2023/04/28 06:12:15;;;;;;;30.80;15.10;;;;;;;;;;108245;1250;22511;-77
2023/04/28 06:14:42;;;;;;;23.60;14.00;;;;;;;;;;108152;1250;22541;-79
2023/04/28 06:17:08;;;;;;;21.60;14.30;;;;;;;;;;108158;1252;24361;-79
2023/04/28 06:19:34;;;;;;;28.90;15.90;;;;;;;;;;108245;1250;22530;-77
2023/04/28 06:22:01;;;;;;;24.10;14.00;;;;;;;;;;107967;1249;26456;-77
2023/04/28 06:24:27;;;;;;;22.00;13.60;;;;;;;;;;108050;1248;22464;-79
2023/04/28 06:26:54;;;;;;;26.50;13.80;;;;;;;;;;107886;1251;22530;-78
2023/04/28 06:29:22;;;;;;;29.00;14.80;;;;;;;;;;108204;1250;22533;-78
2023/04/28 06:31:49;;;;;;;20.40;13.40;;;;;;;;;;108057;1249;22495;-79
2023/04/28 06:34:15;;;;;;;23.30;13.00;;;;;;;;;;108128;1248;22535;-79
2023/04/28 06:36:41;;;;;;;22.40;13.20;;;;;;;;;;108193;1250;22631;-79
2023/04/28 06:39:08;;;;;;;22.10;14.00;;;;;;;;;;107900;1250;24298;-79
2023/04/28 06:41:34;;;;;;;21.40;12.60;;;;;;;;;;107972;1253;23239;-77
2023/04/28 06:44:00;;;;;;;26.40;14.00;;;;;;;;;;108377;1249;22704;-78
2023/04/28 06:46:27;;;;;;;26.10;13.30;;;;;;;;;;108455;1250;22540;-78
2023/04/28 06:48:53;;;;;;;18.80;11.50;;;;;;;;;;108377;1248;22542;-77
2023/04/28 06:51:19;;;;;;;17.60;11.50;;;;;;;;;;108420;1250;22559;-77
2023/04/28 06:53:46;;;;;;;18.90;11.20;;;;;;;;;;107929;1249;22518;-79
2023/04/28 06:56:12;;;;;;;23.00;12.40;;;;;;;;;;108023;1247;24086;-79
2023/04/28 06:58:39;;;;;;;25.10;12.70;;;;;;;;;;107950;1249;22571;-78
2023/04/28 07:01:05;;;;;;;23.80;13.70;;;;;;;;;;108077;1250;22523;-76
2023/04/28 07:03:31;;;;;;;25.70;12.60;;;;;;;;;;108360;1252;22551;-77
2023/04/28 07:05:58;;;;;;;16.40;11.10;;;;;;;;;;108152;1253;22605;-78
2023/04/28 07:08:25;;;;;;;19.40;12.10;;;;;;;;;;108194;1248;22691;-77
2023/04/28 07:10:51;;;;;;;16.00;10.80;;;;;;;;;;107922;1250;25311;-77
2023/04/28 07:13:18;;;;;;;20.50;12.70;;;;;;;;;;108053;1250;22536;-76
2023/04/28 07:15:44;;;;;;;20.10;11.00;;;;;;;;;;107837;1249;23307;-76
2023/04/28 07:18:11;;;;;;;18.30;10.20;;;;;;;;;;107998;1249;23298;-76
2023/04/28 07:20:37;;;;;;;16.60;10.50;;;;;;;;;;108201;1250;22573;-76
2023/04/28 07:23:03;;;;;;;18.00;10.20;;;;;;;;;;108248;1252;22560;-76
2023/04/28 07:25:30;;;;;;;19.80;12.20;;;;;;;;;;108296;1249;25326;-78
2023/04/28 07:27:56;;;;;;;27.30;14.70;;;;;;;;;;108357;1250;23263;-76
2023/04/28 07:30:23;;;;;;;18.20;12.50;;;;;;;;;;108140;1250;23174;-76
2023/04/28 07:32:49;;;;;;;9.30;6.10;;;;;;;;;;108159;1250;25354;-76
2023/04/28 07:35:16;;;;;;;8.40;5.70;;;;;;;;;;107854;1247;22521;-78
2023/04/28 07:37:42;;;;;;;13.20;6.00;;;;;;;;;;107737;1252;22538;-76
2023/04/28 07:40:08;;;;;;;10.20;7.10;;;;;;;;;;108159;1250;22525;-78
2023/04/28 07:42:35;;;;;;;18.70;8.60;;;;;;;;;;108283;1248;22512;-78
2023/04/28 07:45:02;;;;;;;13.70;6.50;;;;;;;;;;107667;1250;23761;-78
2023/04/28 07:47:29;;;;;;;8.00;6.00;;;;;;;;;;107670;1247;23446;-76
2023/04/28 07:49:55;;;;;;;11.60;5.50;;;;;;;;;;108379;1250;25380;-78
2023/04/28 07:52:22;;;;;;;13.90;5.30;;;;;;;;;;108272;1248;22518;-78
2023/04/28 07:54:48;;;;;;;13.90;5.80;;;;;;;;;;108184;1252;22544;-76
2023/04/28 07:57:14;;;;;;;9.40;5.70;;;;;;;;;;108271;1252;24242;-79
2023/04/28 07:59:41;;;;;;;10.10;6.00;;;;;;;;;;108098;1248;22745;-77
2023/04/28 08:02:07;;;;;;;11.30;5.60;;;;;;;;;;107757;1250;22835;-77
2023/04/28 08:04:35;;;;;;;12.30;5.40;;;;;;;;;;108028;1250;22525;-76
2023/04/28 08:07:02;;;;;;;8.80;4.90;;;;;;;;;;107912;1250;22533;-79
2023/04/28 08:09:28;;;;;;;7.60;5.00;;;;;;;;;;107747;1250;25342;-77
2023/04/28 08:11:55;;;;;;;8.50;4.30;;;;;;;;;;107833;1248;22615;-77
2023/04/28 08:14:21;;;;;;;7.40;4.20;;;;;;;;;;107761;1252;22528;-79
2023/04/28 08:16:47;;;;;;;9.30;4.80;;;;;;;;;;107734;1250;22530;-79
2023/04/28 08:19:14;;;;;;;10.90;4.80;;;;;;;;;;107818;1252;23124;-78
2023/04/28 08:21:41;;;;;;;7.50;4.40;;;;;;;;;;107665;1249;22543;-79
2023/04/28 08:24:09;;;;;;;8.10;4.30;;;;;;;;;;107694;1248;22693;-78
2023/04/28 08:26:36;;;;;;;;;;;;;;;;;;107627;1252;22488;-79
2023/04/28 08:29:02;;;;;;;7.40;3.90;;;;;;;;;;107697;1250;25290;-76
2023/04/28 08:31:28;;;;;;;14.80;4.80;;;;;;;;;;107711;1254;26158;-78
2023/04/28 08:33:55;;;;;;;9.20;4.60;;;;;;;;;;107663;1252;22750;-77
2023/04/28 08:36:22;;;;;;;8.90;4.00;;;;;;;;;;107712;1250;24267;-77
2023/04/28 08:38:48;;;;;;;7.30;4.10;;;;;;;;;;107708;1250;24344;-78
2023/04/28 08:41:15;;;;;;;8.50;4.40;;;;;;;;;;107741;1250;22497;-77
2023/04/28 08:43:42;;;;;;;8.40;4.50;;;;;;;;;;107781;1252;22650;-79
2023/04/28 08:46:08;;;;;;;6.70;3.60;;;;;;;;;;107874;1251;24241;-77
2023/04/28 08:48:38;;;;;;;9.10;4.10;;;;;;;;;;107722;1250;24826;-77
2023/04/28 08:51:05;;;;;;;11.60;4.30;;;;;;;;;;107805;1250;24902;-77
2023/04/28 08:53:31;;;;;;;8.20;4.30;;;;;;;;;;107597;1250;24249;-77
2023/04/28 08:55:58;;;;;;;8.70;4.40;;;;;;;;;;107791;1248;25508;-79
2023/04/28 08:58:25;;;;;;;7.50;3.50;;;;;;;;;;107697;1250;25345;-79
2023/04/28 09:00:51;;;;;;;7.40;3.80;;;;;;;;;;107820;1252;22526;-79
2023/04/28 09:03:18;;;;;;;6.50;4.10;;;;;;;;;;107665;1252;25814;-77
2023/04/28 09:05:44;;;;;;;8.00;3.30;;;;;;;;;;107649;1252;22629;-77
2023/04/28 09:08:11;;;;;;;6.70;3.90;;;;;;;;;;107680;1248;24240;-78
2023/04/28 09:10:37;;;;;;;8.30;3.70;;;;;;;;;;107845;1252;22522;-78
2023/04/28 09:13:04;;;;;;;9.30;3.70;;;;;;;;;;107709;1250;25326;-79
2023/04/28 09:15:31;;;;;;;7.40;3.70;;;;;;;;;;107652;1251;22524;-79
2023/04/28 09:17:57;;;;;;;9.70;3.40;;;;;;;;;;107651;1250;22781;-80
2023/04/28 09:20:27;;;;;;;4.80;3.20;;;;;;;;;;107709;1249;25508;-79
2023/04/28 09:22:54;;;;;;;5.50;3.30;;;;;;;;;;107771;1249;23011;-79
2023/04/28 09:25:22;;;;;;;9.50;3.60;;;;;;;;;;107605;1250;24235;-78
2023/04/28 09:27:48;;;;;;;9.10;3.70;;;;;;;;;;107779;1250;22624;-79
2023/04/28 09:30:15;;;;;;;9.40;4.50;;;;;;;;;;107749;1250;22531;-78
2023/04/28 09:32:41;;;;;;;7.50;4.60;;;;;;;;;;107771;1253;22643;-79
2023/04/28 09:35:08;;;;;;;7.80;3.60;;;;;;;;;;107625;1251;22745;-79
2023/04/28 09:37:35;;;;;;;8.70;4.50;;;;;;;;;;107722;1249;23019;-79
2023/04/28 09:40:04;;;;;;;10.30;3.90;;;;;;;;;;107918;1251;25343;-78
2023/04/28 09:42:34;;;;;;;7.70;3.70;;;;;;;;;;107831;1253;22640;-78
2023/04/28 09:45:10;;;;;;;9.60;4.90;;;;;;;;;;107535;1252;25472;-78
2023/04/28 09:47:37;;;;;;;9.30;4.80;;;;;;;;;;107580;1251;25290;-78
2023/04/28 09:50:05;;;;;;;6.70;4.10;;;;;;;;;;107615;1252;24844;-79
2023/04/28 09:52:32;;;;;;;18.90;6.10;;;;;;;;;;107595;1250;22521;-78
2023/04/28 09:54:58;;;;;;;10.00;4.60;;;;;;;;;;107524;1252;22523;-78
2023/04/28 09:57:25;;;;;;;8.70;3.80;;;;;;;;;;107684;1251;22872;-80
2023/04/28 09:59:52;;;;;;;10.30;3.50;;;;;;;;;;107678;1250;22629;-80
2023/04/28 10:02:19;;;;;;;5.30;3.60;;;;;;;;;;107639;1253;26404;-80
2023/04/28 10:04:46;;;;;;;7.00;3.40;;;;;;;;;;107500;1251;22528;-79
2023/04/28 10:07:13;;;;;;;8.30;3.50;;;;;;;;;;107522;1251;24264;-80
2023/04/28 10:09:43;;;;;;;7.00;3.30;;;;;;;;;;107557;1251;24214;-78
2023/04/28 10:12:10;;;;;;;5.60;3.10;;;;;;;;;;107667;1250;23616;-80
2023/04/28 10:14:36;;;;;;;5.90;3.00;;;;;;;;;;107658;1253;22542;-78
2023/04/28 10:17:04;;;;;;;10.20;3.70;;;;;;;;;;107714;1251;23250;-80
2023/04/28 10:19:30;;;;;;;5.80;3.30;;;;;;;;;;108076;1248;22538;-81
2023/04/28 10:22:17;;;;;;;6.30;3.00;;;;;;;;;;107784;1251;24327;-80
2023/04/28 10:24:48;;;;;;;9.90;4.50;;;;;;;;;;107662;1248;24247;-80
2023/04/28 10:27:14;;;;;;;8.70;3.40;;;;;;;;;;110159;1250;22344;-79
2023/04/28 10:29:41;;;;;;;11.60;4.00;;;;;;;;;;108638;1250;22620;-78
2023/04/28 10:32:13;;;;;;;9.40;3.50;;;;;;;;;;107853;1250;22519;-80
2023/04/28 10:34:40;;;;;;;4.70;3.00;;;;;;;;;;107628;1249;24215;-78
2023/04/28 10:37:06;;;;;;;9.10;4.00;;;;;;;;;;107598;1253;22527;-79
2023/04/28 10:39:32;;;;;;;9.70;4.30;;;;;;;;;;107706;1253;22559;-79
2023/04/28 10:41:59;;;;;;;12.90;5.20;;;;;;;;;;107673;1253;22539;-78
2023/04/28 10:44:34;;;;;;;9.90;4.10;;;;;;;;;;107556;1250;24239;-79
2023/04/28 10:47:08;;;;;;;9.90;4.50;;;;;;;;;;107613;1248;24219;-77
2023/04/28 10:49:53;;;;;;;9.20;3.90;;;;;;;;;;107733;1248;22531;-77
2023/04/28 10:52:23;;;;;;;;;;;;;;;;;;107842;1248;24267;-77
2023/04/28 10:55:15;;;;;;;9.60;4.30;;;;;;;;;;107550;1251;22533;-77
2023/04/28 10:57:42;;;;;;;12.10;4.90;;;;;;;;;;107332;1253;25268;-79
2023/04/28 11:00:25;;;;;;;6.80;4.00;;;;;;;;;;107658;1250;22536;-78
2023/04/28 11:02:53;;;;;;;8.80;4.60;;;;;;;;;;107634;1253;22536;-77
2023/04/28 11:05:20;;;;;;;13.90;4.60;;;;;;;;;;107692;1251;22528;-78
2023/04/28 11:08:05;;;;;;;6.10;4.00;;;;;;;;;;107524;1250;25444;-78
2023/04/28 11:10:51;;;;;;;6.40;3.90;;;;;;;;;;107613;1251;22545;-78
2023/04/28 11:13:33;;;;;;;6.20;4.30;;;;;;;;;;107971;1251;23952;-77
2023/04/28 11:16:03;;;;;;;4.10;3.20;;;;;;;;;;107618;1251;22787;-77
2023/04/28 11:18:29;;;;;;;6.10;3.60;;;;;;;;;;107604;1251;25334;-77
2023/04/28 11:20:56;;;;;;;11.80;4.80;;;;;;;;;;107556;1249;22517;-78
2023/04/28 11:23:23;;;;;;;5.40;3.50;;;;;;;;;;107746;1253;22649;-80
2023/04/28 11:25:53;;;;;;;9.50;3.60;;;;;;;;;;107609;1251;22644;-77
2023/04/28 11:28:20;;;;;;;8.00;4.40;;;;;;;;;;107720;1251;23334;-79
2023/04/28 11:30:46;;;;;;;9.40;4.20;;;;;;;;;;107919;1248;22523;-77
2023/04/28 11:33:12;;;;;;;6.50;3.20;;;;;;;;;;107856;1248;22540;-79
2023/04/28 11:35:40;;;;;;;16.20;5.40;;;;;;;;;;107540;1251;24185;-77
2023/04/28 11:38:06;;;;;;;8.40;3.70;;;;;;;;;;107570;1251;23128;-79
2023/04/28 11:40:33;;;;;;;7.90;4.10;;;;;;;;;;107695;1248;25387;-77
2023/04/28 11:43:02;;;;;;;8.30;4.10;;;;;;;;;;107773;1253;22535;-79
2023/04/28 11:45:28;;;;;;;;;;;;;;;;;;107471;1252;22529;-77
2023/04/28 11:47:55;;;;;;;7.00;4.30;;;;;;;;;;107577;1248;23427;-77
2023/04/28 11:50:37;;;;;;;6.80;2.90;;;;;;;;;;107686;1253;23077;-79
2023/04/28 11:53:03;;;;;;;8.20;3.30;;;;;;;;;;107714;1254;22544;-79
2023/04/28 11:55:30;;;;;;;5.40;2.90;;;;;;;;;;107472;1251;25506;-77
2023/04/28 11:58:15;;;;;;;6.40;3.60;;;;;;;;;;107578;1251;24374;-77
2023/04/28 12:00:41;;;;;;;9.00;3.90;;;;;;;;;;107684;1251;25353;-79
2023/04/28 12:03:08;;;;;;;5.40;3.70;;;;;;;;;;107620;1252;22651;-79
2023/04/28 12:05:36;;;;;;;7.10;3.40;;;;;;;;;;107540;1251;25411;-77
2023/04/28 12:08:03;;;;;;;14.40;4.70;;;;;;;;;;107465;1248;26681;-77
2023/04/28 12:10:29;;;;;;;8.90;4.00;;;;;;;;;;107805;1251;25351;-77
2023/04/28 12:12:56;;;;;;;13.60;4.60;;;;;;;;;;107736;1251;24102;-79
2023/04/28 12:15:24;;;;;;;7.70;3.50;;;;;;;;;;107558;1252;26072;-79
2023/04/28 12:17:50;;;;;;;6.60;3.10;;;;;;;;;;107746;1248;26009;-79
2023/04/28 12:20:34;;;;;;;8.60;3.70;;;;;;;;;;107772;1251;24717;-80
2023/04/28 12:23:01;;;;;;;5.00;3.30;;;;;;;;;;107756;1251;24242;-79
2023/04/28 12:25:27;;;;;;;8.30;3.90;;;;;;;;;;107705;1251;24382;-77
2023/04/28 12:27:57;;;;;;;11.70;3.80;;;;;;;;;;107665;1251;23250;-79
2023/04/28 12:30:24;;;;;;;6.50;3.30;;;;;;;;;;107727;1251;24279;-77
2023/04/28 12:32:50;;;;;;;7.80;3.60;;;;;;;;;;107760;1250;22539;-78
2023/04/28 12:35:16;;;;;;;12.90;5.10;;;;;;;;;;107682;1248;22534;-79
2023/04/28 12:37:43;;;;;;;5.20;2.90;;;;;;;;;;107743;1250;24247;-78
2023/04/28 12:40:10;;;;;;;6.30;2.90;;;;;;;;;;107864;1251;22537;-78
2023/04/28 12:42:36;;;;;;;6.60;3.40;;;;;;;;;;107820;1250;25472;-80
2023/04/28 12:45:03;;;;;;;5.70;2.60;;;;;;;;;;108067;1251;24238;-77
2023/04/28 12:47:29;;;;;;;6.20;2.70;;;;;;;;;;107950;1251;23949;-78
2023/04/28 12:49:56;;;;;;;7.30;2.70;;;;;;;;;;108099;1251;22526;-80
2023/04/28 12:52:22;;;;;;;5.10;2.30;;;;;;;;;;107881;1251;22564;-80
2023/04/28 12:54:49;;;;;;;9.40;3.80;;;;;;;;;;107709;1251;22535;-80
2023/04/28 12:57:16;;;;;;;6.30;2.50;;;;;;;;;;107817;1248;23657;-80
2023/04/28 12:59:43;;;;;;;4.50;2.60;;;;;;;;;;107955;1251;22651;-79
2023/04/28 13:02:09;;;;;;;8.50;2.90;;;;;;;;;;110304;1250;26503;-78
2023/04/28 13:04:35;;;;;;;4.80;2.60;;;;;;;;;;107717;1248;22526;-78
2023/04/28 13:07:02;;;;;;;5.20;2.40;;;;;;;;;;107758;1251;22530;-78
2023/04/28 13:09:29;;;;;;;5.80;2.30;;;;;;;;;;107850;1251;25220;-78
2023/04/28 13:11:55;;;;;;;4.10;2.20;;;;;;;;;;107863;1250;22713;-80
2023/04/28 13:14:21;;;;;;;4.40;1.80;;;;;;;;;;107803;1252;22576;-78
2023/04/28 13:16:48;;;;;;;17.50;3.80;;;;;;;;;;107847;1251;22550;-78
2023/04/28 13:19:14;;;;;;;4.00;2.60;;;;;;;;;;107809;1251;22563;-78
2023/04/28 13:21:41;;;;;;;6.80;3.60;;;;;;;;;;107761;1251;25378;-80
2023/04/28 13:24:08;;;;;;;10.20;3.10;;;;;;;;;;107705;1251;23317;-80
2023/04/28 13:26:34;;;;;;;10.40;3.80;;;;;;;;;;107672;1250;25318;-80
2023/04/28 13:29:02;;;;;;;5.60;2.80;;;;;;;;;;107794;1250;23010;-80
2023/04/28 13:31:29;;;;;;;;;;;;;;;;;;107762;1249;22535;-78
2023/04/28 13:33:55;;;;;;;7.10;3.50;;;;;;;;;;107752;1251;24257;-81
2023/04/28 13:36:22;;;;;;;5.60;3.20;;;;;;;;;;108019;1248;22733;-81
2023/04/28 13:38:49;;;;;;;6.30;4.00;;;;;;;;;;108095;1249;22524;-81
2023/04/28 13:41:15;;;;;;;4.90;2.70;;;;;;;;;;109815;1251;22690;-81
2023/04/28 13:43:42;;;;;;;8.00;3.00;;;;;;;;;;107952;1251;22528;-81
2023/04/28 13:46:08;;;;;;;5.70;2.40;;;;;;;;;;107901;1250;22964;-81
2023/04/28 13:48:35;;;;;;;3.40;1.80;;;;;;;;;;107805;1254;22569;-80
2023/04/28 13:51:01;;;;;;;7.60;2.30;;;;;;;;;;107910;1251;22536;-79
2023/04/28 13:53:28;;;;;;;5.10;2.10;;;;;;;;;;107804;1253;22536;-81
2023/04/28 13:55:56;;;;;;;4.70;2.50;;;;;;;;;;107940;1249;22559;-81
2023/04/28 13:58:23;;;;;;;14.90;10.20;;;;;;;;;;107697;1253;133841;-79
2023/04/28 14:00:51;;;;;;;29.20;17.80;;;;;;;;;;107751;1251;22638;-81
2023/04/28 14:03:19;;;;;;;7.90;4.00;;;;;;;;;;107629;1248;22533;-78
2023/04/28 14:05:45;;;;;;;17.50;9.20;;;;;;;;;;107662;1251;22634;-80
2023/04/28 14:08:12;;;;;;;25.70;13.40;;;;;;;;;;107747;1250;22547;-80
2023/04/28 14:10:38;;;;;;;9.30;3.20;;;;;;;;;;107762;1250;25234;-79
2023/04/28 14:13:04;;;;;;;5.30;3.10;;;;;;;;;;107776;1249;22524;-80
2023/04/28 14:15:32;;;;;;;11.80;4.60;;;;;;;;;;107562;1251;23777;-79